sensor_id;sensor_type;location;lat;lon;timestamp;P1;durP1;ratioP1;P2;durP2;ratioP2
80117;SDS011;69424;48.770;-1.564;2023-12-22T00:00:10;26.60;;;4.60;;
80117;SDS011;69424;48.770;-1.564;2023-12-22T00:01:02;31.30;;;4.70;;
80117;SDS011;69424;48.770;-1.564;2023-12-22T00:01:45;22.70;;;4.20;;
80117;SDS011;69424;48.770;-1.564;2023-12-22T00:02:51;31.30;;;4.50;;
80117;SDS011;69424;48.770;-1.564;2023-12-22T00:03:57;26.10;;;5.00;;
80117;SDS011;69424;48.770;-1.564;2023-12-22T00:05:03;30.80;;;4.80;;
80117;SDS011;69424;48.770;-1.564;2023-12-22T00:05:36;26.80;;;4.60;;
80117;SDS011;69424;48.770;-1.564;2023-12-22T00:06:09;20.40;;;4.10;;
80117;SDS011;69424;48.770;-1.564;2023-12-22T00:06:44;25.80;;;4.90;;
80117;SDS011;69424;48.770;-1.564;2023-12-22T00:07:17;26.30;;;4.20;;
80117;SDS011;69424;48.770;-1.564;2023-12-22T00:07:53;28.50;;;5.70;;
80117;SDS011;69424;48.770;-1.564;2023-12-22T00:09:31;22.70;;;3.90;;
80117;SDS011;69424;48.770;-1.564;2023-12-22T00:10:04;22.80;;;4.50;;
80117;SDS011;69424;48.770;-1.564;2023-12-22T00:10:38;26.00;;;4.10;;
80117;SDS011;69424;48.770;-1.564;2023-12-22T00:11:44;26.50;;;5.10;;
80117;SDS011;69424;48.770;-1.564;2023-12-22T00:12:17;28.20;;;5.40;;
80117;SDS011;69424;48.770;-1.564;2023-12-22T00:12:50;27.40;;;5.30;;
80117;SDS011;69424;48.770;-1.564;2023-12-22T00:13:23;32.30;;;4.90;;
80117;SDS011;69424;48.770;-1.564;2023-12-22T00:13:56;36.10;;;5.60;;
80117;SDS011;69424;48.770;-1.564;2023-12-22T00:14:32;25.20;;;5.10;;
80117;SDS011;69424;48.770;-1.564;2023-12-22T00:15:05;34.30;;;5.60;;
80117;SDS011;69424;48.770;-1.564;2023-12-22T00:15:38;37.50;;;6.70;;
80117;SDS011;69424;48.770;-1.564;2023-12-22T00:16:12;32.90;;;5.30;;
80117;SDS011;69424;48.770;-1.564;2023-12-22T00:16:45;36.00;;;5.30;;
80117;SDS011;69424;48.770;-1.564;2023-12-22T00:17:18;27.00;;;4.70;;
80117;SDS011;69424;48.770;-1.564;2023-12-22T00:18:25;30.70;;;4.90;;
80117;SDS011;69424;48.770;-1.564;2023-12-22T00:18:58;28.90;;;5.20;;
80117;SDS011;69424;48.770;-1.564;2023-12-22T00:19:31;25.20;;;5.50;;
80117;SDS011;69424;48.770;-1.564;2023-12-22T00:20:05;27.90;;;5.00;;
80117;SDS011;69424;48.770;-1.564;2023-12-22T00:20:38;26.00;;;4.70;;
80117;SDS011;69424;48.770;-1.564;2023-12-22T00:21:45;25.20;;;4.10;;
80117;SDS011;69424;48.770;-1.564;2023-12-22T00:22:18;26.20;;;4.50;;
80117;SDS011;69424;48.770;-1.564;2023-12-22T00:22:52;24.60;;;4.20;;
80117;SDS011;69424;48.770;-1.564;2023-12-22T00:23:25;31.50;;;5.30;;
80117;SDS011;69424;48.770;-1.564;2023-12-22T00:23:58;16.50;;;3.60;;
80117;SDS011;69424;48.770;-1.564;2023-12-22T00:25:06;18.40;;;3.60;;
80117;SDS011;69424;48.770;-1.564;2023-12-22T00:25:42;28.10;;;4.10;;
80117;SDS011;69424;48.770;-1.564;2023-12-22T00:26:15;32.40;;;6.70;;
80117;SDS011;69424;48.770;-1.564;2023-12-22T00:27:21;26.70;;;4.10;;
80117;SDS011;69424;48.770;-1.564;2023-12-22T00:28:27;28.90;;;3.70;;
80117;SDS011;69424;48.770;-1.564;2023-12-22T00:29:01;26.30;;;5.10;;
80117;SDS011;69424;48.770;-1.564;2023-12-22T00:29:34;25.40;;;5.00;;
80117;SDS011;69424;48.770;-1.564;2023-12-22T00:30:08;33.20;;;5.70;;
80117;SDS011;69424;48.770;-1.564;2023-12-22T00:30:42;30.90;;;5.30;;
80117;SDS011;69424;48.770;-1.564;2023-12-22T00:31:15;29.00;;;4.70;;
80117;SDS011;69424;48.770;-1.564;2023-12-22T00:31:49;26.50;;;4.30;;
80117;SDS011;69424;48.770;-1.564;2023-12-22T00:32:55;20.20;;;3.50;;
80117;SDS011;69424;48.770;-1.564;2023-12-22T00:33:28;27.30;;;4.80;;
80117;SDS011;69424;48.770;-1.564;2023-12-22T00:34:03;36.90;;;6.10;;
80117;SDS011;69424;48.770;-1.564;2023-12-22T00:35:10;23.80;;;4.00;;
80117;SDS011;69424;48.770;-1.564;2023-12-22T00:36:16;30.40;;;4.30;;
80117;SDS011;69424;48.770;-1.564;2023-12-22T00:36:50;21.10;;;3.60;;
80117;SDS011;69424;48.770;-1.564;2023-12-22T00:37:26;22.30;;;4.30;;
80117;SDS011;69424;48.770;-1.564;2023-12-22T00:38:32;26.90;;;4.60;;
80117;SDS011;69424;48.770;-1.564;2023-12-22T00:39:05;27.10;;;4.60;;
80117;SDS011;69424;48.770;-1.564;2023-12-22T00:39:38;27.20;;;4.70;;
80117;SDS011;69424;48.770;-1.564;2023-12-22T00:40:45;29.90;;;5.10;;
80117;SDS011;69424;48.770;-1.564;2023-12-22T00:41:18;24.30;;;4.40;;
80117;SDS011;69424;48.770;-1.564;2023-12-22T00:41:52;30.30;;;4.60;;
80117;SDS011;69424;48.770;-1.564;2023-12-22T00:42:25;18.50;;;4.80;;
80117;SDS011;69424;48.770;-1.564;2023-12-22T00:42:59;26.90;;;5.40;;
80117;SDS011;69424;48.770;-1.564;2023-12-22T00:44:05;19.30;;;4.00;;
80117;SDS011;69424;48.770;-1.564;2023-12-22T00:44:49;21.00;;;4.30;;
80117;SDS011;69424;48.770;-1.564;2023-12-22T00:45:22;19.40;;;3.70;;
80117;SDS011;69424;48.770;-1.564;2023-12-22T00:46:30;32.00;;;4.60;;
80117;SDS011;69424;48.770;-1.564;2023-12-22T00:47:03;22.40;;;4.80;;
80117;SDS011;69424;48.770;-1.564;2023-12-22T00:47:36;23.00;;;4.80;;
80117;SDS011;69424;48.770;-1.564;2023-12-22T00:48:10;25.00;;;5.00;;
80117;SDS011;69424;48.770;-1.564;2023-12-22T00:48:43;20.40;;;4.10;;
80117;SDS011;69424;48.770;-1.564;2023-12-22T00:49:50;29.90;;;4.60;;
80117;SDS011;69424;48.770;-1.564;2023-12-22T00:50:57;32.30;;;5.00;;
80117;SDS011;69424;48.770;-1.564;2023-12-22T00:52:03;32.10;;;4.80;;
80117;SDS011;69424;48.770;-1.564;2023-12-22T00:52:36;24.30;;;3.90;;
80117;SDS011;69424;48.770;-1.564;2023-12-22T00:53:10;24.20;;;3.90;;
80117;SDS011;69424;48.770;-1.564;2023-12-22T00:53:45;27.30;;;4.70;;
80117;SDS011;69424;48.770;-1.564;2023-12-22T00:54:18;25.90;;;4.50;;
80117;SDS011;69424;48.770;-1.564;2023-12-22T00:54:51;27.40;;;4.40;;
80117;SDS011;69424;48.770;-1.564;2023-12-22T00:55:24;24.40;;;5.20;;
80117;SDS011;69424;48.770;-1.564;2023-12-22T00:55:57;20.40;;;4.20;;
80117;SDS011;69424;48.770;-1.564;2023-12-22T00:56:33;24.70;;;4.20;;
80117;SDS011;69424;48.770;-1.564;2023-12-22T00:57:40;23.00;;;3.50;;
80117;SDS011;69424;48.770;-1.564;2023-12-22T00:58:13;25.90;;;4.00;;
80117;SDS011;69424;48.770;-1.564;2023-12-22T00:59:32;25.60;;;3.40;;
80117;SDS011;69424;48.770;-1.564;2023-12-22T01:00:05;22.10;;;3.50;;
80117;SDS011;69424;48.770;-1.564;2023-12-22T01:00:41;21.80;;;4.60;;
80117;SDS011;69424;48.770;-1.564;2023-12-22T01:01:47;22.80;;;3.50;;
80117;SDS011;69424;48.770;-1.564;2023-12-22T01:02:21;33.20;;;4.80;;
80117;SDS011;69424;48.770;-1.564;2023-12-22T01:03:27;23.00;;;4.10;;
80117;SDS011;69424;48.770;-1.564;2023-12-22T01:04:01;22.40;;;5.20;;
80117;SDS011;69424;48.770;-1.564;2023-12-22T01:04:34;26.50;;;4.80;;
80117;SDS011;69424;48.770;-1.564;2023-12-22T01:05:41;21.60;;;4.00;;
80117;SDS011;69424;48.770;-1.564;2023-12-22T01:06:14;27.60;;;4.40;;
80117;SDS011;69424;48.770;-1.564;2023-12-22T01:07:20;27.10;;;4.50;;
80117;SDS011;69424;48.770;-1.564;2023-12-22T01:07:55;32.50;;;4.40;;
80117;SDS011;69424;48.770;-1.564;2023-12-22T01:08:28;24.70;;;4.80;;
80117;SDS011;69424;48.770;-1.564;2023-12-22T01:09:02;22.80;;;4.70;;
80117;SDS011;69424;48.770;-1.564;2023-12-22T01:09:35;29.20;;;5.30;;
80117;SDS011;69424;48.770;-1.564;2023-12-22T01:10:10;19.00;;;3.80;;
80117;SDS011;69424;48.770;-1.564;2023-12-22T01:10:43;19.70;;;3.70;;
80117;SDS011;69424;48.770;-1.564;2023-12-22T01:11:17;22.60;;;3.40;;
80117;SDS011;69424;48.770;-1.564;2023-12-22T01:11:50;26.70;;;4.00;;
80117;SDS011;69424;48.770;-1.564;2023-12-22T01:12:23;21.40;;;3.50;;
80117;SDS011;69424;48.770;-1.564;2023-12-22T01:12:57;20.50;;;3.90;;
80117;SDS011;69424;48.770;-1.564;2023-12-22T01:13:30;22.00;;;3.40;;
80117;SDS011;69424;48.770;-1.564;2023-12-22T01:14:03;27.20;;;4.40;;
80117;SDS011;69424;48.770;-1.564;2023-12-22T01:14:36;18.00;;;3.90;;
80117;SDS011;69424;48.770;-1.564;2023-12-22T01:15:09;19.30;;;3.50;;
80117;SDS011;69424;48.770;-1.564;2023-12-22T01:15:43;23.00;;;4.50;;
80117;SDS011;69424;48.770;-1.564;2023-12-22T01:16:18;22.00;;;3.70;;
80117;SDS011;69424;48.770;-1.564;2023-12-22T01:16:54;30.00;;;4.70;;
80117;SDS011;69424;48.770;-1.564;2023-12-22T01:17:27;24.80;;;3.70;;
80117;SDS011;69424;48.770;-1.564;2023-12-22T01:18:01;18.00;;;3.10;;
80117;SDS011;69424;48.770;-1.564;2023-12-22T01:18:34;19.20;;;4.10;;
80117;SDS011;69424;48.770;-1.564;2023-12-22T01:19:07;19.40;;;3.30;;
80117;SDS011;69424;48.770;-1.564;2023-12-22T01:19:41;24.60;;;4.10;;
80117;SDS011;69424;48.770;-1.564;2023-12-22T01:20:47;22.60;;;4.20;;
80117;SDS011;69424;48.770;-1.564;2023-12-22T01:21:21;22.80;;;4.50;;
80117;SDS011;69424;48.770;-1.564;2023-12-22T01:21:55;23.30;;;4.20;;
80117;SDS011;69424;48.770;-1.564;2023-12-22T01:22:36;18.10;;;3.70;;
80117;SDS011;69424;48.770;-1.564;2023-12-22T01:23:11;24.80;;;4.30;;
80117;SDS011;69424;48.770;-1.564;2023-12-22T01:23:44;29.30;;;4.80;;
80117;SDS011;69424;48.770;-1.564;2023-12-22T01:24:17;28.30;;;3.60;;
80117;SDS011;69424;48.770;-1.564;2023-12-22T01:24:51;26.30;;;4.90;;
80117;SDS011;69424;48.770;-1.564;2023-12-22T01:25:24;26.30;;;4.50;;
80117;SDS011;69424;48.770;-1.564;2023-12-22T01:25:57;25.90;;;4.50;;
80117;SDS011;69424;48.770;-1.564;2023-12-22T01:27:03;18.20;;;3.60;;
80117;SDS011;69424;48.770;-1.564;2023-12-22T01:27:36;28.50;;;4.70;;
80117;SDS011;69424;48.770;-1.564;2023-12-22T01:28:09;24.10;;;4.80;;
80117;SDS011;69424;48.770;-1.564;2023-12-22T01:29:16;21.40;;;4.20;;
80117;SDS011;69424;48.770;-1.564;2023-12-22T01:29:49;20.10;;;3.00;;
80117;SDS011;69424;48.770;-1.564;2023-12-22T01:30:55;31.00;;;3.90;;
80117;SDS011;69424;48.770;-1.564;2023-12-22T01:31:29;18.40;;;3.60;;
80117;SDS011;69424;48.770;-1.564;2023-12-22T01:32:02;19.10;;;4.20;;
80117;SDS011;69424;48.770;-1.564;2023-12-22T01:32:35;20.00;;;4.00;;
80117;SDS011;69424;48.770;-1.564;2023-12-22T01:33:09;24.90;;;4.50;;
80117;SDS011;69424;48.770;-1.564;2023-12-22T01:33:42;22.00;;;4.00;;
80117;SDS011;69424;48.770;-1.564;2023-12-22T01:34:16;22.70;;;4.00;;
80117;SDS011;69424;48.770;-1.564;2023-12-22T01:35:22;28.10;;;3.50;;
80117;SDS011;69424;48.770;-1.564;2023-12-22T01:35:55;21.80;;;4.40;;
80117;SDS011;69424;48.770;-1.564;2023-12-22T01:36:28;23.80;;;3.90;;
80117;SDS011;69424;48.770;-1.564;2023-12-22T01:37:35;21.30;;;3.90;;
80117;SDS011;69424;48.770;-1.564;2023-12-22T01:38:09;24.50;;;4.00;;
80117;SDS011;69424;48.770;-1.564;2023-12-22T01:38:42;19.60;;;3.60;;
80117;SDS011;69424;48.770;-1.564;2023-12-22T01:39:48;23.50;;;4.00;;
80117;SDS011;69424;48.770;-1.564;2023-12-22T01:40:55;25.70;;;4.20;;
80117;SDS011;69424;48.770;-1.564;2023-12-22T01:41:28;25.80;;;3.80;;
80117;SDS011;69424;48.770;-1.564;2023-12-22T01:42:01;23.10;;;4.00;;
80117;SDS011;69424;48.770;-1.564;2023-12-22T01:42:34;22.00;;;3.40;;
80117;SDS011;69424;48.770;-1.564;2023-12-22T01:43:07;20.60;;;3.40;;
80117;SDS011;69424;48.770;-1.564;2023-12-22T01:44:14;16.30;;;2.90;;
80117;SDS011;69424;48.770;-1.564;2023-12-22T01:45:20;16.50;;;2.50;;
80117;SDS011;69424;48.770;-1.564;2023-12-22T01:46:31;21.60;;;3.10;;
80117;SDS011;69424;48.770;-1.564;2023-12-22T01:47:06;19.90;;;3.20;;
80117;SDS011;69424;48.770;-1.564;2023-12-22T01:47:39;17.70;;;3.00;;
80117;SDS011;69424;48.770;-1.564;2023-12-22T01:48:13;21.10;;;3.90;;
80117;SDS011;69424;48.770;-1.564;2023-12-22T01:48:46;27.20;;;3.90;;
80117;SDS011;69424;48.770;-1.564;2023-12-22T01:49:21;20.60;;;3.30;;
80117;SDS011;69424;48.770;-1.564;2023-12-22T01:49:54;22.60;;;4.00;;
80117;SDS011;69424;48.770;-1.564;2023-12-22T01:50:28;22.50;;;4.00;;
80117;SDS011;69424;48.770;-1.564;2023-12-22T01:51:01;19.80;;;3.80;;
80117;SDS011;69424;48.770;-1.564;2023-12-22T01:51:36;18.10;;;4.00;;
80117;SDS011;69424;48.770;-1.564;2023-12-22T01:52:12;23.60;;;3.60;;
80117;SDS011;69424;48.770;-1.564;2023-12-22T01:52:45;25.80;;;5.50;;
80117;SDS011;69424;48.770;-1.564;2023-12-22T01:53:20;24.50;;;4.30;;
80117;SDS011;69424;48.770;-1.564;2023-12-22T01:53:53;26.30;;;4.00;;
80117;SDS011;69424;48.770;-1.564;2023-12-22T01:54:29;33.40;;;4.80;;
80117;SDS011;69424;48.770;-1.564;2023-12-22T01:55:04;27.90;;;5.50;;
80117;SDS011;69424;48.770;-1.564;2023-12-22T01:55:38;24.60;;;5.30;;
80117;SDS011;69424;48.770;-1.564;2023-12-22T01:56:11;29.80;;;4.60;;
80117;SDS011;69424;48.770;-1.564;2023-12-22T01:56:45;23.20;;;5.00;;
80117;SDS011;69424;48.770;-1.564;2023-12-22T01:57:19;31.60;;;4.10;;
80117;SDS011;69424;48.770;-1.564;2023-12-22T01:57:52;21.90;;;3.80;;
80117;SDS011;69424;48.770;-1.564;2023-12-22T01:58:25;30.80;;;4.60;;
80117;SDS011;69424;48.770;-1.564;2023-12-22T01:59:00;22.30;;;4.30;;
80117;SDS011;69424;48.770;-1.564;2023-12-22T01:59:34;24.40;;;4.40;;
80117;SDS011;69424;48.770;-1.564;2023-12-22T02:00:14;12.10;;;2.60;;
80117;SDS011;69424;48.770;-1.564;2023-12-22T02:00:48;26.70;;;3.70;;
80117;SDS011;69424;48.770;-1.564;2023-12-22T02:01:21;18.10;;;3.60;;
80117;SDS011;69424;48.770;-1.564;2023-12-22T02:01:56;19.40;;;4.20;;
80117;SDS011;69424;48.770;-1.564;2023-12-22T02:02:31;26.10;;;4.80;;
80117;SDS011;69424;48.770;-1.564;2023-12-22T02:03:04;21.00;;;3.90;;
80117;SDS011;69424;48.770;-1.564;2023-12-22T02:03:37;18.30;;;3.10;;
80117;SDS011;69424;48.770;-1.564;2023-12-22T02:04:10;25.60;;;3.90;;
80117;SDS011;69424;48.770;-1.564;2023-12-22T02:04:46;23.60;;;4.30;;
80117;SDS011;69424;48.770;-1.564;2023-12-22T02:05:20;24.80;;;3.90;;
80117;SDS011;69424;48.770;-1.564;2023-12-22T02:05:53;26.00;;;4.70;;
80117;SDS011;69424;48.770;-1.564;2023-12-22T02:06:27;22.20;;;3.50;;
80117;SDS011;69424;48.770;-1.564;2023-12-22T02:07:03;23.80;;;4.30;;
80117;SDS011;69424;48.770;-1.564;2023-12-22T02:07:36;16.40;;;2.70;;
80117;SDS011;69424;48.770;-1.564;2023-12-22T02:08:13;17.50;;;3.20;;
80117;SDS011;69424;48.770;-1.564;2023-12-22T02:08:50;24.20;;;4.40;;
80117;SDS011;69424;48.770;-1.564;2023-12-22T02:09:23;20.10;;;3.60;;
80117;SDS011;69424;48.770;-1.564;2023-12-22T02:10:30;20.60;;;4.60;;
80117;SDS011;69424;48.770;-1.564;2023-12-22T02:11:03;29.40;;;4.70;;
80117;SDS011;69424;48.770;-1.564;2023-12-22T02:11:38;17.40;;;3.70;;
80117;SDS011;69424;48.770;-1.564;2023-12-22T02:12:12;18.00;;;2.40;;
80117;SDS011;69424;48.770;-1.564;2023-12-22T02:12:48;19.70;;;3.00;;
80117;SDS011;69424;48.770;-1.564;2023-12-22T02:13:30;17.40;;;3.10;;
80117;SDS011;69424;48.770;-1.564;2023-12-22T02:14:03;17.50;;;2.40;;
80117;SDS011;69424;48.770;-1.564;2023-12-22T02:14:36;15.50;;;2.90;;
80117;SDS011;69424;48.770;-1.564;2023-12-22T02:15:11;18.90;;;3.20;;
80117;SDS011;69424;48.770;-1.564;2023-12-22T02:15:50;14.30;;;3.00;;
80117;SDS011;69424;48.770;-1.564;2023-12-22T02:16:43;21.90;;;3.40;;
80117;SDS011;69424;48.770;-1.564;2023-12-22T02:17:25;14.50;;;2.50;;
80117;SDS011;69424;48.770;-1.564;2023-12-22T02:18:50;15.90;;;3.10;;
80117;SDS011;69424;48.770;-1.564;2023-12-22T02:20:13;19.40;;;3.40;;
80117;SDS011;69424;48.770;-1.564;2023-12-22T02:20:54;18.70;;;3.50;;
80117;SDS011;69424;48.770;-1.564;2023-12-22T02:21:28;19.10;;;4.10;;
80117;SDS011;69424;48.770;-1.564;2023-12-22T02:22:02;16.60;;;3.10;;
80117;SDS011;69424;48.770;-1.564;2023-12-22T02:23:16;18.70;;;2.70;;
80117;SDS011;69424;48.770;-1.564;2023-12-22T02:23:55;14.60;;;2.40;;
80117;SDS011;69424;48.770;-1.564;2023-12-22T02:24:31;18.10;;;3.60;;
80117;SDS011;69424;48.770;-1.564;2023-12-22T02:25:05;15.90;;;2.70;;
80117;SDS011;69424;48.770;-1.564;2023-12-22T02:25:39;14.70;;;2.70;;
80117;SDS011;69424;48.770;-1.564;2023-12-22T02:26:25;19.50;;;2.60;;
80117;SDS011;69424;48.770;-1.564;2023-12-22T02:28:13;20.80;;;3.10;;
80117;SDS011;69424;48.770;-1.564;2023-12-22T02:28:51;16.60;;;2.60;;
80117;SDS011;69424;48.770;-1.564;2023-12-22T02:29:26;20.90;;;3.50;;
80117;SDS011;69424;48.770;-1.564;2023-12-22T02:30:08;16.10;;;2.70;;
80117;SDS011;69424;48.770;-1.564;2023-12-22T02:30:43;15.70;;;2.80;;
80117;SDS011;69424;48.770;-1.564;2023-12-22T02:31:36;22.00;;;3.40;;
80117;SDS011;69424;48.770;-1.564;2023-12-22T02:32:25;23.30;;;3.00;;
80117;SDS011;69424;48.770;-1.564;2023-12-22T02:33:07;18.30;;;3.60;;
80117;SDS011;69424;48.770;-1.564;2023-12-22T02:33:44;18.70;;;3.30;;
80117;SDS011;69424;48.770;-1.564;2023-12-22T02:34:20;16.90;;;3.00;;
80117;SDS011;69424;48.770;-1.564;2023-12-22T02:34:57;13.30;;;3.00;;
80117;SDS011;69424;48.770;-1.564;2023-12-22T02:35:33;15.30;;;2.60;;
80117;SDS011;69424;48.770;-1.564;2023-12-22T02:36:12;13.80;;;2.90;;
80117;SDS011;69424;48.770;-1.564;2023-12-22T02:36:51;14.20;;;2.20;;
80117;SDS011;69424;48.770;-1.564;2023-12-22T02:37:27;17.40;;;3.00;;
80117;SDS011;69424;48.770;-1.564;2023-12-22T02:38:05;20.20;;;3.10;;
80117;SDS011;69424;48.770;-1.564;2023-12-22T02:38:40;16.90;;;3.40;;
80117;SDS011;69424;48.770;-1.564;2023-12-22T02:39:15;18.10;;;4.00;;
80117;SDS011;69424;48.770;-1.564;2023-12-22T02:39:51;18.40;;;2.80;;
80117;SDS011;69424;48.770;-1.564;2023-12-22T02:40:25;15.50;;;3.20;;
80117;SDS011;69424;48.770;-1.564;2023-12-22T02:41:02;20.70;;;3.90;;
80117;SDS011;69424;48.770;-1.564;2023-12-22T02:41:36;20.90;;;3.00;;
80117;SDS011;69424;48.770;-1.564;2023-12-22T02:42:12;18.30;;;2.60;;
80117;SDS011;69424;48.770;-1.564;2023-12-22T02:42:47;18.80;;;3.00;;
80117;SDS011;69424;48.770;-1.564;2023-12-22T02:43:20;17.70;;;3.10;;
80117;SDS011;69424;48.770;-1.564;2023-12-22T02:43:54;19.30;;;3.00;;
80117;SDS011;69424;48.770;-1.564;2023-12-22T02:44:31;11.90;;;2.10;;
80117;SDS011;69424;48.770;-1.564;2023-12-22T02:45:05;13.10;;;2.90;;
80117;SDS011;69424;48.770;-1.564;2023-12-22T02:45:39;20.80;;;3.40;;
80117;SDS011;69424;48.770;-1.564;2023-12-22T02:46:14;14.80;;;3.50;;
80117;SDS011;69424;48.770;-1.564;2023-12-22T02:46:49;15.50;;;2.70;;
80117;SDS011;69424;48.770;-1.564;2023-12-22T02:47:26;15.40;;;3.00;;
80117;SDS011;69424;48.770;-1.564;2023-12-22T02:48:03;16.80;;;3.50;;
80117;SDS011;69424;48.770;-1.564;2023-12-22T02:48:37;18.50;;;3.40;;
80117;SDS011;69424;48.770;-1.564;2023-12-22T02:49:12;14.70;;;2.60;;
80117;SDS011;69424;48.770;-1.564;2023-12-22T02:49:46;22.40;;;4.00;;
80117;SDS011;69424;48.770;-1.564;2023-12-22T02:50:19;15.80;;;3.60;;
80117;SDS011;69424;48.770;-1.564;2023-12-22T02:50:54;16.80;;;3.50;;
80117;SDS011;69424;48.770;-1.564;2023-12-22T02:51:27;17.10;;;3.10;;
80117;SDS011;69424;48.770;-1.564;2023-12-22T02:52:02;22.60;;;4.20;;
80117;SDS011;69424;48.770;-1.564;2023-12-22T02:52:38;21.80;;;3.70;;
80117;SDS011;69424;48.770;-1.564;2023-12-22T02:53:16;15.90;;;2.80;;
80117;SDS011;69424;48.770;-1.564;2023-12-22T02:53:56;24.80;;;3.80;;
80117;SDS011;69424;48.770;-1.564;2023-12-22T02:54:29;17.20;;;3.00;;
80117;SDS011;69424;48.770;-1.564;2023-12-22T02:55:04;16.10;;;3.00;;
80117;SDS011;69424;48.770;-1.564;2023-12-22T02:55:38;16.30;;;3.50;;
80117;SDS011;69424;48.770;-1.564;2023-12-22T02:56:16;19.10;;;3.20;;
80117;SDS011;69424;48.770;-1.564;2023-12-22T02:56:50;18.00;;;3.50;;
80117;SDS011;69424;48.770;-1.564;2023-12-22T02:57:23;22.30;;;3.80;;
80117;SDS011;69424;48.770;-1.564;2023-12-22T02:57:57;18.60;;;3.10;;
80117;SDS011;69424;48.770;-1.564;2023-12-22T02:58:30;21.60;;;3.60;;
80117;SDS011;69424;48.770;-1.564;2023-12-22T02:59:04;19.20;;;3.60;;
80117;SDS011;69424;48.770;-1.564;2023-12-22T02:59:37;15.80;;;3.00;;
80117;SDS011;69424;48.770;-1.564;2023-12-22T03:00:11;18.80;;;2.90;;
80117;SDS011;69424;48.770;-1.564;2023-12-22T03:00:45;23.30;;;4.10;;
80117;SDS011;69424;48.770;-1.564;2023-12-22T03:01:19;24.90;;;3.80;;
80117;SDS011;69424;48.770;-1.564;2023-12-22T03:01:54;24.60;;;3.60;;
80117;SDS011;69424;48.770;-1.564;2023-12-22T03:02:30;13.70;;;3.00;;
80117;SDS011;69424;48.770;-1.564;2023-12-22T03:03:04;18.60;;;3.10;;
80117;SDS011;69424;48.770;-1.564;2023-12-22T03:03:37;19.60;;;4.10;;
80117;SDS011;69424;48.770;-1.564;2023-12-22T03:04:10;21.40;;;4.30;;
80117;SDS011;69424;48.770;-1.564;2023-12-22T03:04:44;19.70;;;3.40;;
80117;SDS011;69424;48.770;-1.564;2023-12-22T03:05:19;16.90;;;2.80;;
80117;SDS011;69424;48.770;-1.564;2023-12-22T03:05:52;15.50;;;2.80;;
80117;SDS011;69424;48.770;-1.564;2023-12-22T03:06:28;13.80;;;2.50;;
80117;SDS011;69424;48.770;-1.564;2023-12-22T03:07:02;15.20;;;2.70;;
80117;SDS011;69424;48.770;-1.564;2023-12-22T03:07:35;17.30;;;3.20;;
80117;SDS011;69424;48.770;-1.564;2023-12-22T03:08:14;16.00;;;3.10;;
80117;SDS011;69424;48.770;-1.564;2023-12-22T03:08:50;13.70;;;2.80;;
80117;SDS011;69424;48.770;-1.564;2023-12-22T03:09:23;16.20;;;2.90;;
80117;SDS011;69424;48.770;-1.564;2023-12-22T03:09:56;13.00;;;2.90;;
80117;SDS011;69424;48.770;-1.564;2023-12-22T03:10:30;18.30;;;2.70;;
80117;SDS011;69424;48.770;-1.564;2023-12-22T03:11:03;16.70;;;2.80;;
80117;SDS011;69424;48.770;-1.564;2023-12-22T03:11:40;16.50;;;3.50;;
80117;SDS011;69424;48.770;-1.564;2023-12-22T03:12:15;14.80;;;2.90;;
80117;SDS011;69424;48.770;-1.564;2023-12-22T03:12:51;14.30;;;3.00;;
80117;SDS011;69424;48.770;-1.564;2023-12-22T03:13:26;15.90;;;2.50;;
80117;SDS011;69424;48.770;-1.564;2023-12-22T03:14:00;17.20;;;3.20;;
80117;SDS011;69424;48.770;-1.564;2023-12-22T03:14:37;14.70;;;2.30;;
80117;SDS011;69424;48.770;-1.564;2023-12-22T03:15:11;19.10;;;3.00;;
80117;SDS011;69424;48.770;-1.564;2023-12-22T03:15:44;19.80;;;3.10;;
80117;SDS011;69424;48.770;-1.564;2023-12-22T03:16:20;10.20;;;1.90;;
80117;SDS011;69424;48.770;-1.564;2023-12-22T03:16:54;21.00;;;3.40;;
80117;SDS011;69424;48.770;-1.564;2023-12-22T03:17:27;15.90;;;2.80;;
80117;SDS011;69424;48.770;-1.564;2023-12-22T03:18:00;17.10;;;3.10;;
80117;SDS011;69424;48.770;-1.564;2023-12-22T03:18:34;16.30;;;3.10;;
80117;SDS011;69424;48.770;-1.564;2023-12-22T03:19:07;17.60;;;3.70;;
80117;SDS011;69424;48.770;-1.564;2023-12-22T03:19:48;14.10;;;2.80;;
80117;SDS011;69424;48.770;-1.564;2023-12-22T03:20:23;17.30;;;3.10;;
80117;SDS011;69424;48.770;-1.564;2023-12-22T03:20:57;21.50;;;3.60;;
80117;SDS011;69424;48.770;-1.564;2023-12-22T03:21:30;18.50;;;3.10;;
80117;SDS011;69424;48.770;-1.564;2023-12-22T03:22:03;18.20;;;3.60;;
80117;SDS011;69424;48.770;-1.564;2023-12-22T03:22:37;16.10;;;2.90;;
80117;SDS011;69424;48.770;-1.564;2023-12-22T03:23:10;14.60;;;2.80;;
80117;SDS011;69424;48.770;-1.564;2023-12-22T03:23:44;22.90;;;2.60;;
80117;SDS011;69424;48.770;-1.564;2023-12-22T03:24:17;21.20;;;3.40;;
80117;SDS011;69424;48.770;-1.564;2023-12-22T03:24:57;17.70;;;4.00;;
80117;SDS011;69424;48.770;-1.564;2023-12-22T03:25:32;22.60;;;3.70;;
80117;SDS011;69424;48.770;-1.564;2023-12-22T03:26:08;20.10;;;3.10;;
80117;SDS011;69424;48.770;-1.564;2023-12-22T03:26:41;21.20;;;3.30;;
80117;SDS011;69424;48.770;-1.564;2023-12-22T03:27:17;16.20;;;3.20;;
80117;SDS011;69424;48.770;-1.564;2023-12-22T03:27:51;19.10;;;3.00;;
80117;SDS011;69424;48.770;-1.564;2023-12-22T03:28:27;16.40;;;3.50;;
80117;SDS011;69424;48.770;-1.564;2023-12-22T03:29:00;22.70;;;3.80;;
80117;SDS011;69424;48.770;-1.564;2023-12-22T03:29:35;22.10;;;3.90;;
80117;SDS011;69424;48.770;-1.564;2023-12-22T03:30:18;16.20;;;2.90;;
80117;SDS011;69424;48.770;-1.564;2023-12-22T03:30:52;12.50;;;2.60;;
80117;SDS011;69424;48.770;-1.564;2023-12-22T03:31:26;14.20;;;2.70;;
80117;SDS011;69424;48.770;-1.564;2023-12-22T03:32:02;15.50;;;2.50;;
80117;SDS011;69424;48.770;-1.564;2023-12-22T03:32:36;19.10;;;4.10;;
80117;SDS011;69424;48.770;-1.564;2023-12-22T03:33:10;23.70;;;3.10;;
80117;SDS011;69424;48.770;-1.564;2023-12-22T03:33:44;22.10;;;3.30;;
80117;SDS011;69424;48.770;-1.564;2023-12-22T03:34:17;18.60;;;3.40;;
80117;SDS011;69424;48.770;-1.564;2023-12-22T03:34:51;19.40;;;3.20;;
80117;SDS011;69424;48.770;-1.564;2023-12-22T03:35:25;21.70;;;3.70;;
80117;SDS011;69424;48.770;-1.564;2023-12-22T03:36:01;22.20;;;4.50;;
80117;SDS011;69424;48.770;-1.564;2023-12-22T03:36:35;22.10;;;3.90;;
80117;SDS011;69424;48.770;-1.564;2023-12-22T03:37:09;22.80;;;3.80;;
80117;SDS011;69424;48.770;-1.564;2023-12-22T03:37:43;17.80;;;2.90;;
80117;SDS011;69424;48.770;-1.564;2023-12-22T03:38:20;14.00;;;2.30;;
80117;SDS011;69424;48.770;-1.564;2023-12-22T03:38:53;10.70;;;2.20;;
80117;SDS011;69424;48.770;-1.564;2023-12-22T03:39:27;19.00;;;3.10;;
80117;SDS011;69424;48.770;-1.564;2023-12-22T03:40:00;15.90;;;2.60;;
80117;SDS011;69424;48.770;-1.564;2023-12-22T03:40:36;19.00;;;3.00;;
80117;SDS011;69424;48.770;-1.564;2023-12-22T03:41:09;20.20;;;3.30;;
80117;SDS011;69424;48.770;-1.564;2023-12-22T03:41:42;10.10;;;2.80;;
80117;SDS011;69424;48.770;-1.564;2023-12-22T03:42:18;14.30;;;2.40;;
80117;SDS011;69424;48.770;-1.564;2023-12-22T03:42:53;18.50;;;3.50;;
80117;SDS011;69424;48.770;-1.564;2023-12-22T03:43:31;10.80;;;3.00;;
80117;SDS011;69424;48.770;-1.564;2023-12-22T03:44:08;14.40;;;3.00;;
80117;SDS011;69424;48.770;-1.564;2023-12-22T03:44:41;18.70;;;2.90;;
80117;SDS011;69424;48.770;-1.564;2023-12-22T03:45:15;14.40;;;2.90;;
80117;SDS011;69424;48.770;-1.564;2023-12-22T03:45:48;19.70;;;2.80;;
80117;SDS011;69424;48.770;-1.564;2023-12-22T03:46:21;18.10;;;3.00;;
80117;SDS011;69424;48.770;-1.564;2023-12-22T03:46:56;11.00;;;2.10;;
80117;SDS011;69424;48.770;-1.564;2023-12-22T03:47:31;18.60;;;2.70;;